Porcupine, North Dakota
Current Conditions -  °F | °C
As of 11:15 AM on Thursday 18 Dec 2014 (Local Time) from KY19 Reporting Station
Overcast Overcast  
Wind Chill: 11°   Ceiling: 500
Heat Index: 21°   Visibility: 8mi
Dew Point: 19°   Wind: 9mph
Humidity: 93%   Direction: 170°S
Pressure: 30.05"   Gusts: NA
Location:  46.1857°N, 101.254°W
Report Text: KY19 181815Z AUTO 17008KT 8SM OVC005 M06/M07 A3005 RMK AO2
Loading
Personal Weather Stations






























Interactive Weather Map New forecast layout! Learn more

10-Day Weather Forecast

Advertisements
Track Severe Weather on mobile